Time;durP1;ratioP1;P1;durP2;ratioP2;P2;SDS_P1;SDS_P2;PMS_P1;PMS_P2;Temp;Humidity;BMP_temperature;BMP_pressure;BME280_temperature;BME280_humidity;BME280_pressure;Samples;Min_cycle;Max_cycle;Signal;HPM_P1;HPM_P2
2022/06/03 00:01:10;;;;;;;3.03;1.77;;;;;;;16.69;89.32;100251.81;4982135;28;20307;-76
2022/06/03 00:04:10;;;;;;;2.90;2.17;;;;;;;16.64;89.63;100254.59;4983359;28;20690;-74
2022/06/03 00:06:54;;;;;;;4.47;1.87;;;;;;;16.56;89.51;100244.41;4975889;28;20295;-74
2022/06/03 00:09:42;;;;;;;3.00;1.70;;;;;;;16.54;89.74;100233.16;4984303;28;20936;-74
2022/06/03 00:12:15;;;;;;;2.17;2.00;;;;;;;16.53;90.20;100228.81;4982571;28;20283;-74
2022/06/03 00:15:23;;;;;;;2.47;1.77;;;;;;;16.46;91.24;100230.78;4985353;28;20637;-76
2022/06/03 00:18:07;;;;;;;2.50;1.83;;;;;;;16.42;91.14;100221.34;4983656;28;20565;-76
2022/06/03 00:21:02;;;;;;;2.53;1.97;;;;;;;16.39;91.28;100226.72;4980565;28;20224;-76
2022/06/03 00:23:43;;;;;;;2.80;2.40;;;;;;;16.33;91.66;100224.28;4982742;28;20258;-76
2022/06/03 00:26:27;;;;;;;2.17;2.03;;;;;;;16.29;92.23;100223.56;4984440;28;20196;-75
2022/06/03 00:29:16;;;;;;;3.37;2.40;;;;;;;16.29;92.42;100230.50;4982281;28;20211;-73
2022/06/03 00:32:02;;;;;;;2.67;2.20;;;;;;;16.24;92.75;100228.06;4980535;28;20304;-75
2022/06/03 00:34:48;;;;;;;2.33;2.10;;;;;;;16.22;92.69;100231.63;4985656;28;20182;-74
2022/06/03 00:37:29;;;;;;;3.37;2.40;;;;;;;16.21;93.37;100230.78;4981065;28;20208;-74
2022/06/03 00:40:08;;;;;;;5.63;2.50;;;;;;;16.20;93.44;100231.66;4984206;28;20209;-74
2022/06/03 00:43:00;;;;;;;2.77;2.47;;;;;;;16.17;93.75;100233.53;4983469;28;20201;-74
2022/06/03 00:45:55;;;;;;;3.67;2.53;;;;;;;16.13;94.59;100238.03;4981575;28;20336;-74
2022/06/03 00:48:55;;;;;;;7.03;2.60;;;;;;;16.06;94.47;100245.19;4987250;28;20212;-74
2022/06/03 00:51:58;;;;;;;3.40;2.20;;;;;;;16.00;95.02;100245.38;4982659;28;20245;-74
2022/06/03 00:54:39;;;;;;;2.37;2.23;;;;;;;15.95;94.88;100250.75;4982023;28;20691;-74
2022/06/03 00:57:34;;;;;;;2.90;2.23;;;;;;;15.92;95.11;100250.84;4988036;28;20560;-74
2022/06/03 01:00:06;;;;;;;2.23;2.03;;;;;;;15.91;95.14;100259.56;4984998;28;20798;-74
2022/06/03 01:02:48;;;;;;;2.40;2.20;;;;;;;15.89;94.66;100252.72;4981249;28;20231;-74
2022/06/03 01:05:44;;;;;;;2.23;2.07;;;;;;;15.89;94.60;100263.16;4982618;28;20188;-74
2022/06/03 01:08:18;;;;;;;2.40;2.20;;;;;;;15.85;94.71;100263.25;5017405;28;21010;-74
2022/06/03 01:11:03;;;;;;;2.60;2.40;;;;;;;15.81;94.84;100256.38;4982495;28;20687;-74
2022/06/03 01:13:40;;;;;;;2.40;2.20;;;;;;;15.77;94.95;100261.72;4983332;28;20255;-74
2022/06/03 01:16:26;;;;;;;2.23;2.13;;;;;;;15.70;95.11;100259.34;4993469;28;20674;-74
2022/06/03 01:19:16;;;;;;;2.07;1.97;;;;;;;15.67;95.38;100264.63;5013468;28;20679;-74
2022/06/03 01:22:28;;;;;;;2.73;2.20;;;;;;;15.59;96.13;100264.00;4982035;28;20247;-74
2022/06/03 01:25:15;;;;;;;2.60;2.40;;;;;;;15.51;96.10;100266.00;4992587;28;20204;-74
2022/06/03 01:27:52;;;;;;;2.50;2.30;;;;;;;15.43;95.35;100265.38;4994259;28;20199;-74
2022/06/03 01:30:36;;;;;;;2.37;2.27;;;;;;;15.30;95.84;100255.28;4983422;28;20242;-74
2022/06/03 01:33:23;;;;;;;2.80;2.50;;;;;;;15.23;96.11;100272.88;4978545;28;20189;-74
2022/06/03 01:36:26;;;;;;;2.50;2.30;;;;;;;15.16;96.58;100270.47;4982695;28;20676;-74
2022/06/03 01:39:11;;;;;;;2.50;2.30;;;;;;;15.08;96.87;100286.31;4997708;28;20190;-74
2022/06/03 01:42:01;;;;;;;2.40;2.20;;;;;;;15.03;97.17;100285.63;4983105;28;20185;-76
2022/06/03 01:44:48;;;;;;;2.30;2.10;;;;;;;14.96;96.83;100278.84;4982275;28;20189;-76
2022/06/03 01:47:25;;;;;;;2.90;2.30;;;;;;;14.90;96.66;100270.28;4984398;28;20192;-75
2022/06/03 01:50:15;;;;;;;2.20;2.00;;;;;;;14.87;97.00;100282.56;4984998;28;20225;-76
2022/06/03 01:53:05;;;;;;;2.80;2.50;;;;;;;14.82;97.17;100267.06;4983527;28;20275;-76
2022/06/03 01:56:08;;;;;;;2.87;2.23;;;;;;;14.77;97.11;100261.97;4979821;28;20491;-75
2022/06/03 01:59:00;;;;;;;2.53;2.33;;;;;;;14.75;97.06;100258.56;4980417;28;20203;-75
2022/06/03 02:01:37;;;;;;;2.23;2.13;;;;;;;14.72;97.02;100258.63;4984752;28;20565;-75
2022/06/03 02:04:21;;;;;;;2.40;2.20;;;;;;;14.71;96.94;100256.06;4978976;28;20663;-75
2022/06/03 02:07:41;;;;;;;2.50;2.20;;;;;;;14.68;96.81;100257.00;4982614;28;20201;-76
2022/06/03 02:10:18;;;;;;;2.30;2.10;;;;;;;14.68;97.14;100263.97;4980661;28;21350;-76
2022/06/03 02:13:08;;;;;;;2.43;2.23;;;;;;;14.67;96.51;100254.41;4981294;28;20630;-76
2022/06/03 02:16:10;;;;;;;2.37;2.17;;;;;;;14.65;95.93;100254.47;4967553;28;20680;-76
2022/06/03 02:18:38;;;;;;;3.07;2.27;;;;;;;14.61;95.69;100251.06;4992352;28;20194;-76
2022/06/03 02:21:13;;;;;;;2.60;2.23;;;;;;;14.60;95.54;100264.13;4982596;28;20307;-76
2022/06/03 02:24:00;;;;;;;2.33;2.13;;;;;;;14.60;95.41;100259.78;4981948;28;20199;-74
2022/06/03 02:26:47;;;;;;;2.37;2.17;;;;;;;14.61;95.92;100265.84;4981042;28;20195;-74
2022/06/03 02:32:48;;;;;;;3.13;2.50;;;;;;;14.59;96.27;100259.81;4983404;28;20223;-74
2022/06/03 02:35:44;;;;;;;2.47;2.30;;;;;;;14.56;96.36;100259.91;4970697;28;20684;-74
2022/06/03 02:38:31;;;;;;;2.70;2.50;;;;;;;14.53;96.68;100268.66;4995841;28;20235;-74
2022/06/03 02:41:15;;;;;;;3.00;2.80;;;;;;;14.48;96.38;100260.97;4984154;28;20215;-76
2022/06/03 02:44:02;;;;;;;2.53;2.17;;;;;;;14.45;96.37;100267.97;4991258;28;20200;-76
2022/06/03 02:46:46;;;;;;;2.70;2.50;;;;;;;14.40;96.50;100262.88;4986325;28;20195;-76
2022/06/03 02:49:22;;;;;;;2.97;2.30;;;;;;;14.36;96.61;100268.22;4984073;28;20220;-76
2022/06/03 02:52:25;;;;;;;2.17;2.00;;;;;;;14.33;96.81;100262.19;5002747;28;20227;-76
2022/06/03 02:55:39;;;;;;;2.60;2.40;;;;;;;14.32;97.10;100270.88;4956066;28;20225;-76
2022/06/03 02:58:11;;;;;;;2.63;2.43;;;;;;;14.31;97.29;100266.56;4954959;28;20296;-76
2022/06/03 03:00:40;;;;;;;3.97;2.53;;;;;;;14.30;97.52;100264.03;4980967;28;20210;-76
2022/06/03 03:03:44;;;;;;;2.53;2.33;;;;;;;14.28;97.34;100271.88;4982180;28;20272;-73
2022/06/03 03:06:28;;;;;;;5.87;2.73;;;;;;;14.27;97.24;100261.50;4981272;28;20322;-74
2022/06/03 03:09:08;;;;;;;4.53;2.60;;;;;;;14.27;96.83;100264.09;4984859;28;20665;-75
2022/06/03 03:11:58;;;;;;;2.50;2.30;;;;;;;14.28;96.83;100263.19;4982419;28;20210;-74
2022/06/03 03:14:29;;;;;;;3.67;2.33;;;;;;;14.29;96.19;100254.50;4984745;28;20194;-76
2022/06/03 03:17:09;;;;;;;4.10;2.20;;;;;;;14.29;95.77;100255.34;4984730;28;20539;-76
2022/06/03 03:19:53;;;;;;;2.23;2.10;;;;;;;14.29;95.78;100250.13;4998462;28;20348;-75
2022/06/03 03:22:47;;;;;;;2.60;2.40;;;;;;;14.31;95.42;100253.56;4987216;28;20575;-76
2022/06/03 03:25:37;;;;;;;2.60;2.00;;;;;;;14.31;94.84;100248.34;4986769;28;20308;-75
2022/06/03 03:28:28;;;;;;;2.40;2.20;;;;;;;14.29;94.50;100244.94;4987052;28;20324;-76
2022/06/03 03:31:00;;;;;;;2.43;2.17;;;;;;;14.29;94.68;100244.09;4986310;28;20222;-76
2022/06/03 03:33:56;;;;;;;1.93;1.83;;;;;;;14.29;94.89;100255.34;4985240;28;20664;-75
2022/06/03 03:37:10;;;;;;;3.07;2.30;;;;;;;14.32;94.99;100249.22;4981659;28;20241;-74
2022/06/03 03:39:57;;;;;;;3.23;2.50;;;;;;;14.35;96.64;100240.47;4991384;28;20241;-76
2022/06/03 03:43:08;;;;;;;2.90;2.70;;;;;;;14.35;97.64;100238.75;4986384;28;20200;-76
2022/06/03 03:46:26;;;;;;;3.93;3.37;;;;;;;14.38;99.63;100240.41;4981697;28;20833;-76
2022/06/03 03:49:10;;;;;;;6.63;3.57;;;;;;;14.37;100.00;100243.91;5014528;28;20211;-76
2022/06/03 03:52:02;;;;;;;5.20;3.43;;;;;;;14.30;100.00;100244.03;4985706;28;20245;-76
2022/06/03 03:54:43;;;;;;;3.73;3.43;;;;;;;14.27;100.00;100245.88;4986554;28;20197;-76
2022/06/03 03:57:27;;;;;;;4.03;3.53;;;;;;;14.26;100.00;100252.84;5018943;28;20189;-76
2022/06/03 04:00:17;;;;;;;3.40;3.10;;;;;;;14.27;100.00;100248.47;4987807;28;20216;-76
2022/06/03 04:03:20;;;;;;;6.53;3.40;;;;;;;14.22;100.00;100243.38;4985933;28;20222;-73
2022/06/03 04:06:24;;;;;;;3.97;2.80;;;;;;;14.15;100.00;100247.88;4979895;28;20201;-74
2022/06/03 04:09:43;;;;;;;3.37;3.03;;;;;;;14.15;99.99;100247.03;4969420;28;20230;-75
2022/06/03 04:12:21;;;;;;;3.33;2.40;;;;;;;14.11;98.32;100248.84;4986031;28;20248;-74
2022/06/03 04:15:31;;;;;;;2.53;2.33;;;;;;;14.11;97.13;100250.63;4980374;28;20807;-73
2022/06/03 04:18:08;;;;;;;2.40;2.23;;;;;;;14.09;96.35;100242.81;4982226;28;20279;-73
2022/06/03 04:20:54;;;;;;;2.40;2.30;;;;;;;14.12;96.41;100247.97;4988658;28;20679;-74
2022/06/03 04:23:37;;;;;;;2.40;2.20;;;;;;;14.18;95.44;100244.34;4992891;28;20279;-74
2022/06/03 04:26:44;;;;;;;2.10;2.00;;;;;;;14.24;95.48;100240.72;4988476;28;20197;-74
2022/06/03 04:29:34;;;;;;;4.53;2.53;;;;;;;14.37;94.70;100239.53;4986689;28;20611;-73
2022/06/03 04:32:12;;;;;;;5.23;2.23;;;;;;;14.57;93.71;100240.78;4987415;28;20190;-74
2022/06/03 04:34:59;;;;;;;2.30;2.10;;;;;;;14.98;92.38;100241.41;5015149;28;20194;-74
2022/06/03 04:37:58;;;;;;;2.47;2.27;;;;;;;15.92;89.81;100223.91;4990095;28;20176;-74
2022/06/03 04:40:39;;;;;;;2.03;1.83;;;;;;;17.18;85.54;100223.94;4986829;28;20212;-76
2022/06/03 04:43:19;;;;;;;2.07;1.83;;;;;;;18.58;81.96;100221.00;4988181;28;20262;-77
2022/06/03 04:46:09;;;;;;;2.30;2.17;;;;;;;19.84;77.63;100225.78;4985394;28;20213;-76
2022/06/03 04:48:56;;;;;;;2.23;1.70;;;;;;;20.86;73.87;100221.56;4978622;28;20212;-74
2022/06/03 04:51:24;;;;;;;3.83;1.93;;;;;;;21.44;71.59;100218.44;4984015;28;20759;-75
2022/06/03 04:54:15;;;;;;;1.70;1.50;;;;;;;21.71;70.49;100209.94;4985363;28;20226;-75
2022/06/03 04:57:15;;;;;;;2.33;1.80;;;;;;;22.17;68.82;100215.19;4984846;28;20622;-75
2022/06/03 05:00:40;;;;;;;2.17;1.73;;;;;;;22.05;69.55;100223.81;4983583;28;20250;-75
2022/06/03 05:03:41;;;;;;;1.80;1.70;;;;;;;22.48;68.67;100238.94;4962210;28;20204;-75
2022/06/03 05:06:34;;;;;;;2.80;2.00;;;;;;;23.39;65.19;100221.97;4964110;28;20185;-75
2022/06/03 05:09:17;;;;;;;1.70;1.60;;;;;;;23.97;63.47;100221.78;4985853;28;20207;-74
2022/06/03 05:12:20;;;;;;;2.63;1.70;;;;;;;24.65;62.61;100212.75;4988260;28;20181;-75
2022/06/03 05:15:26;;;;;;;2.30;2.00;;;;;;;25.13;61.35;100227.13;4987973;28;20200;-73
2022/06/03 05:18:01;;;;;;;2.40;1.50;;;;;;;25.72;60.32;100229.06;4966199;28;20196;-76
2022/06/03 05:20:35;;;;;;;1.67;1.57;;;;;;;26.20;59.42;100235.28;4966432;28;20208;-76
2022/06/03 05:23:34;;;;;;;1.50;1.40;;;;;;;26.73;58.80;100234.78;4972461;28;20227;-76
2022/06/03 05:26:14;;;;;;;1.80;1.60;;;;;;;27.14;57.43;100234.34;5011487;28;20188;-75
2022/06/03 05:29:08;;;;;;;2.20;1.70;;;;;;;27.08;56.28;100219.72;4982307;28;20296;-76
2022/06/03 05:32:11;;;;;;;2.07;1.60;;;;;;;27.01;56.27;100223.84;4980311;28;20193;-76
2022/06/03 05:35:03;;;;;;;2.10;1.73;;;;;;;27.38;56.40;100229.69;4985962;28;20183;-75
2022/06/03 05:37:44;;;;;;;4.23;1.80;;;;;;;27.88;55.77;100227.50;4987802;28;20657;-75
2022/06/03 05:40:20;;;;;;;3.50;2.00;;;;;;;28.20;55.16;100224.00;4980295;28;20200;-76
2022/06/03 05:43:04;;;;;;;2.97;1.93;;;;;;;28.50;54.82;100225.00;4986862;28;20561;-76
2022/06/03 05:45:42;;;;;;;2.33;1.70;;;;;;;27.75;55.70;100223.22;4985851;28;20259;-76
2022/06/03 05:48:19;;;;;;;2.10;1.50;;;;;;;27.79;55.92;100224.66;4984864;28;20696;-75
2022/06/03 05:50:56;;;;;;;2.17;1.60;;;;;;;28.15;55.44;100227.03;4985557;28;20311;-76
2022/06/03 05:53:46;;;;;;;1.93;1.70;;;;;;;28.79;54.33;100222.53;4987521;28;20587;-76
2022/06/03 05:56:33;;;;;;;3.00;1.80;;;;;;;28.99;54.53;100212.78;4984198;28;20223;-75
2022/06/03 05:59:13;;;;;;;1.87;1.77;;;;;;;28.72;54.58;100218.66;4999275;28;20684;-75
2022/06/03 06:02:24;;;;;;;1.50;1.40;;;;;;;29.09;54.34;100220.81;4985492;28;20176;-75
2022/06/03 06:05:03;;;;;;;2.20;1.80;;;;;;;29.41;54.26;100224.25;4979127;28;20197;-75
2022/06/03 06:07:39;;;;;;;2.83;2.07;;;;;;;29.62;53.88;100221.47;4981364;28;20233;-75
2022/06/03 06:10:13;;;;;;;1.70;1.60;;;;;;;30.07;53.35;100228.94;4978998;28;20267;-75
2022/06/03 06:12:50;;;;;;;2.00;1.90;;;;;;;30.07;52.98;100220.09;4985779;28;20185;-75
2022/06/03 06:15:37;;;;;;;1.83;1.70;;;;;;;30.28;52.76;100225.25;4984467;28;20864;-76
2022/06/03 06:18:08;;;;;;;2.37;1.80;;;;;;;30.01;52.82;100218.84;4989854;28;20641;-74
2022/06/03 06:21:03;;;;;;;1.77;1.67;;;;;;;29.97;53.34;100230.78;4990813;28;20216;-75
2022/06/03 06:23:50;;;;;;;1.90;1.80;;;;;;;29.72;53.58;100224.16;4981743;28;20193;-75
2022/06/03 06:26:30;;;;;;;2.87;2.07;;;;;;;29.57;53.78;100221.06;4986060;28;20248;-75
2022/06/03 06:28:56;;;;;;;2.07;1.77;;;;;;;29.38;54.10;100220.06;4988280;28;20213;-75
2022/06/03 06:31:21;;;;;;;1.83;1.73;;;;;;;29.53;54.06;100219.66;4990631;28;20196;-74
2022/06/03 06:33:49;;;;;;;1.87;1.77;;;;;;;29.86;54.27;100228.22;4988918;28;20185;-75
2022/06/03 06:36:38;;;;;;;1.90;1.80;;;;;;;30.26;53.66;100236.06;4982564;28;20263;-75
2022/06/03 06:39:29;;;;;;;2.10;1.90;;;;;;;30.40;53.17;100234.78;4985853;28;20213;-73
2022/06/03 06:42:19;;;;;;;1.90;1.80;;;;;;;30.76;53.14;100231.44;4988026;28;20196;-74
2022/06/03 06:44:51;;;;;;;4.47;2.33;;;;;;;30.81;52.79;100231.88;4981927;28;20197;-75
2022/06/03 06:47:25;;;;;;;2.10;1.90;;;;;;;29.98;53.48;100232.47;4986084;28;20235;-75
2022/06/03 06:50:29;;;;;;;2.30;2.10;;;;;;;29.07;54.50;100240.56;4983763;28;20218;-74
2022/06/03 06:53:12;;;;;;;1.87;1.77;;;;;;;28.53;55.21;100241.56;4980161;28;20207;-75
2022/06/03 06:55:42;;;;;;;1.97;1.87;;;;;;;28.34;55.54;100231.63;4987714;28;20204;-75
2022/06/03 06:58:24;;;;;;;1.97;1.57;;;;;;;27.35;57.17;100232.59;4989613;28;20185;-74
2022/06/03 07:00:51;;;;;;;1.93;1.73;;;;;;;27.00;58.09;100232.78;4990109;28;20327;-75
2022/06/03 07:03:46;;;;;;;3.20;2.03;;;;;;;26.90;58.58;100230.84;4991408;28;20669;-75
2022/06/03 07:06:23;;;;;;;2.93;2.33;;;;;;;26.89;58.53;100220.34;4995031;28;20266;-75
2022/06/03 07:08:57;;;;;;;2.10;2.00;;;;;;;26.87;58.52;100214.28;4987801;28;20311;-74
2022/06/03 07:11:30;;;;;;;3.20;2.30;;;;;;;26.51;59.23;100217.03;4982905;28;20216;-75
2022/06/03 07:14:14;;;;;;;4.00;2.57;;;;;;;26.37;59.72;100218.13;4993367;28;20177;-75
2022/06/03 07:20:13;;;;;;;2.87;2.13;;;;;;;25.86;60.81;100225.41;4986637;28;20204;-74
2022/06/03 07:22:51;;;;;;;2.57;2.23;;;;;;;25.24;62.36;100221.06;4989956;28;20233;-75
2022/06/03 07:25:32;;;;;;;3.03;2.13;;;;;;;25.23;62.43;100216.72;4985454;28;20228;-75
2022/06/03 07:28:10;;;;;;;3.00;2.10;;;;;;;26.17;61.65;100211.66;4988047;28;20220;-74
2022/06/03 07:31:06;;;;;;;2.43;2.20;;;;;;;27.20;59.39;100204.59;4988137;28;20695;-75
2022/06/03 07:33:31;;;;;;;2.00;1.90;;;;;;;27.87;58.41;100188.59;4992408;28;20184;-75
2022/06/03 07:36:01;;;;;;;2.50;2.30;;;;;;;27.98;57.92;100175.25;4993244;28;20197;-75
2022/06/03 07:38:53;;;;;;;4.23;2.40;;;;;;;27.27;58.94;100178.38;4987281;28;20205;-75
2022/06/03 07:41:29;;;;;;;2.30;2.10;;;;;;;26.47;60.69;100171.31;4987334;28;20228;-75
2022/06/03 07:44:19;;;;;;;2.77;2.33;;;;;;;25.49;62.66;100158.38;4992561;28;20648;-75
2022/06/03 07:46:53;;;;;;;3.00;2.20;;;;;;;24.87;64.10;100154.88;4989841;28;20279;-75
2022/06/03 07:49:25;;;;;;;2.00;1.90;;;;;;;24.41;65.26;100137.78;4981462;28;20216;-74
2022/06/03 07:52:22;;;;;;;5.23;2.10;;;;;;;24.35;66.67;100133.75;4989803;28;20856;-74
2022/06/03 07:54:55;;;;;;;3.50;2.47;;;;;;;25.11;65.56;100141.66;4986277;28;20203;-74
2022/06/03 07:57:24;;;;;;;5.73;2.23;;;;;;;25.78;63.85;100142.97;4988365;28;20239;-74
2022/06/03 07:59:54;;;;;;;3.57;2.40;;;;;;;25.69;63.95;100144.50;4987483;28;20204;-75
2022/06/03 08:02:21;;;;;;;3.43;2.53;;;;;;;25.13;65.45;100134.47;4989928;28;20229;-75
2022/06/03 08:04:59;;;;;;;2.50;2.30;;;;;;;25.07;66.10;100137.53;4987146;28;20196;-76
2022/06/03 08:13:02;;;;;;;6.53;2.70;;;;;;;25.13;67.05;100138.91;4984260;28;20220;-75
2022/06/03 08:15:37;;;;;;;3.90;2.40;;;;;;;25.39;66.58;100127.25;4989748;28;20296;-75
2022/06/03 08:18:05;;;;;;;3.77;2.60;;;;;;;25.53;66.86;100131.53;4981531;28;20188;-75
2022/06/03 08:20:34;;;;;;;4.23;2.70;;;;;;;25.68;66.30;100134.00;4991271;28;20564;-74
2022/06/03 08:23:03;;;;;;;4.87;2.73;;;;;;;25.59;65.93;100127.59;4986514;28;20296;-75
2022/06/03 08:25:33;;;;;;;3.07;2.63;;;;;;;25.62;65.90;100127.34;4991189;28;20193;-74
2022/06/03 08:27:59;;;;;;;4.47;2.47;;;;;;;25.66;65.64;100130.63;4990769;28;20193;-75
2022/06/03 08:30:27;;;;;;;3.67;2.60;;;;;;;25.39;65.98;100121.09;4989862;28;20584;-75
2022/06/03 08:33:02;;;;;;;6.00;2.50;;;;;;;25.47;66.67;100123.22;4988975;28;20278;-75
2022/06/03 08:35:33;;;;;;;2.70;2.43;;;;;;;25.71;66.36;100125.81;4994790;28;20260;-75
2022/06/03 08:37:58;;;;;;;9.67;3.43;;;;;;;25.95;65.84;100127.56;4983338;28;20185;-75
2022/06/03 08:40:23;;;;;;;4.70;2.90;;;;;;;26.17;65.82;100122.34;4991365;28;20224;-75
2022/06/03 08:43:09;;;;;;;3.37;2.80;;;;;;;26.03;65.66;100131.31;4988097;28;22352;-75
2022/06/03 08:45:41;;;;;;;2.47;2.20;;;;;;;26.14;66.03;100125.22;4980633;28;20209;-76
2022/06/03 08:48:14;;;;;;;5.07;2.97;;;;;;;25.74;66.36;100119.44;4988478;28;20223;-75
2022/06/03 08:50:41;;;;;;;3.23;2.93;;;;;;;25.38;67.29;100111.47;4994749;28;20216;-76
2022/06/03 08:53:45;;;;;;;3.07;2.37;;;;;;;25.38;67.88;100108.81;4990251;28;20185;-75
2022/06/03 08:56:15;;;;;;;3.70;2.87;;;;;;;25.17;68.89;100106.81;4988480;28;20242;-76
2022/06/03 08:58:59;;;;;;;2.90;2.60;;;;;;;25.21;68.43;100100.31;4982659;28;20239;-76
2022/06/03 09:01:33;;;;;;;3.20;2.27;;;;;;;25.22;68.75;100098.53;4989400;28;20884;-75
2022/06/03 09:04:07;;;;;;;2.67;2.47;;;;;;;25.37;67.98;100092.09;4988285;28;20184;-75
2022/06/03 09:06:40;;;;;;;4.27;2.97;;;;;;;25.50;67.45;100078.78;4987215;28;20200;-76
2022/06/03 09:09:24;;;;;;;4.40;2.60;;;;;;;25.77;67.22;100082.97;4992853;28;20240;-75
2022/06/03 09:12:12;;;;;;;2.67;2.47;;;;;;;25.69;66.42;100083.56;4994037;28;20915;-75
2022/06/03 09:14:41;;;;;;;3.53;2.30;;;;;;;25.75;65.74;100095.50;4990252;28;20195;-75
2022/06/03 09:17:28;;;;;;;3.83;2.50;;;;;;;25.83;65.95;100094.91;4985936;28;20695;-75
2022/06/03 09:19:58;;;;;;;3.00;2.10;;;;;;;25.73;66.58;100086.81;4987922;28;20205;-75
2022/06/03 09:22:27;;;;;;;3.40;2.50;;;;;;;25.31;66.23;100095.19;4988911;28;20201;-76
2022/06/03 09:24:57;;;;;;;2.47;2.27;;;;;;;25.20;66.84;100088.03;4988838;28;20185;-76
2022/06/03 09:27:26;;;;;;;2.93;2.70;;;;;;;25.13;67.39;100096.53;4986136;28;20227;-76
2022/06/03 09:29:55;;;;;;;2.97;2.60;;;;;;;25.00;67.54;100094.78;4978763;28;20577;-76
2022/06/03 09:32:23;;;;;;;3.17;2.80;;;;;;;25.21;67.35;100097.66;4981580;28;20311;-76
2022/06/03 09:34:52;;;;;;;2.90;2.30;;;;;;;25.33;67.18;100105.69;4991606;28;20200;-76
2022/06/03 09:37:41;;;;;;;2.83;2.60;;;;;;;25.33;67.24;100103.84;4988912;28;20192;-76
2022/06/03 09:40:12;;;;;;;2.73;2.10;;;;;;;25.69;66.67;100109.19;4973770;28;20297;-76
2022/06/03 09:42:43;;;;;;;3.10;2.43;;;;;;;25.98;65.99;100103.47;4983479;28;20192;-76
2022/06/03 09:45:09;;;;;;;3.97;2.30;;;;;;;26.48;65.38;100097.84;4990941;28;20672;-76
2022/06/03 09:47:36;;;;;;;5.80;2.80;;;;;;;26.75;64.37;100088.69;4987545;28;20665;-76
2022/06/03 09:50:03;;;;;;;2.77;2.40;;;;;;;26.99;64.42;100091.19;4994434;28;20726;-77
2022/06/03 09:52:28;;;;;;;5.33;2.60;;;;;;;26.96;64.47;100099.41;4985745;28;20782;-75
2022/06/03 09:54:59;;;;;;;2.70;2.50;;;;;;;27.19;63.99;100094.88;4980276;28;20193;-74
2022/06/03 09:57:30;;;;;;;2.63;2.43;;;;;;;27.54;63.75;100100.91;4988455;28;20208;-73
2022/06/03 10:00:21;;;;;;;2.37;2.17;;;;;;;27.82;64.03;100109.22;4981576;28;20213;-74
2022/06/03 10:02:47;;;;;;;2.93;2.60;;;;;;;27.91;63.24;100110.25;4989869;28;20280;-76
2022/06/03 10:05:16;;;;;;;3.23;2.20;;;;;;;28.03;62.70;100111.84;4989003;28;20915;-77
2022/06/03 10:07:43;;;;;;;2.60;2.37;;;;;;;28.27;61.97;100114.25;4985799;28;20691;-77
2022/06/03 10:12:58;;;;;;;4.37;2.53;;;;;;;28.75;60.96;100110.09;4980021;28;20192;-77
2022/06/03 10:15:39;;;;;;;2.53;2.30;;;;;;;29.06;60.68;100109.19;4979435;28;20193;-76
2022/06/03 10:18:24;;;;;;;2.23;2.10;;;;;;;28.95;61.09;100115.47;4978441;28;20197;-77
2022/06/03 10:20:52;;;;;;;2.60;2.40;;;;;;;28.92;61.32;100125.56;4981731;28;20303;-76
2022/06/03 10:23:22;;;;;;;2.00;1.90;;;;;;;29.03;61.65;100126.28;4985146;28;20574;-73
2022/06/03 10:25:49;;;;;;;2.67;2.30;;;;;;;29.14;61.19;100116.47;4985262;28;20197;-73
2022/06/03 10:28:15;;;;;;;4.77;2.70;;;;;;;29.08;61.07;100120.53;4988947;28;20305;-73
2022/06/03 10:30:42;;;;;;;2.63;2.43;;;;;;;29.25;61.67;100118.19;4990137;28;20735;-76
2022/06/03 10:33:31;;;;;;;2.73;2.50;;;;;;;29.35;61.72;100127.03;4990584;28;20185;-74
2022/06/03 10:36:00;;;;;;;2.67;2.47;;;;;;;29.37;61.77;100129.56;4986262;28;20276;-75
2022/06/03 10:38:30;;;;;;;6.73;2.53;;;;;;;29.27;61.80;100130.38;4999546;28;20196;-75
2022/06/03 10:40:56;;;;;;;3.43;2.27;;;;;;;29.20;61.90;100137.22;4989571;28;20245;-75
2022/06/03 10:43:31;;;;;;;2.07;1.90;;;;;;;29.23;62.10;100150.28;4986163;28;20272;-76
2022/06/03 10:46:13;;;;;;;2.40;2.30;;;;;;;29.23;61.39;100146.78;4990902;28;20233;-75
2022/06/03 10:48:39;;;;;;;2.20;2.00;;;;;;;29.15;61.71;100150.13;4986874;28;20225;-75
2022/06/03 11:01:06;;;;;;;2.27;2.10;;;;;;;29.11;62.34;100151.38;4996758;28;20216;-75
2022/06/03 11:02:33;;;;;;;1.90;1.80;;;;;;;29.00;62.19;100117.72;4985357;28;20285;-75
2022/06/03 11:05:10;;;;;;;2.17;2.00;;;;;;;28.88;62.92;100123.16;4990984;28;20831;-75
2022/06/03 11:07:36;;;;;;;2.30;2.10;;;;;;;28.79;63.06;100110.69;5002408;28;20288;-76
2022/06/03 11:10:15;;;;;;;3.53;2.30;;;;;;;28.66;63.12;100099.41;4989604;28;20747;-76
2022/06/03 11:12:43;;;;;;;2.53;2.20;;;;;;;28.66;63.24;100088.75;4986377;28;20204;-75
2022/06/03 11:15:32;;;;;;;2.80;2.03;;;;;;;28.71;63.42;100071.38;4983776;28;20216;-75
2022/06/03 11:18:00;;;;;;;3.70;2.33;;;;;;;28.80;63.12;100050.25;4986720;28;20284;-76
2022/06/03 11:20:39;;;;;;;3.87;2.40;;;;;;;28.72;63.14;100030.47;4986899;28;20343;-76
2022/06/03 11:23:08;;;;;;;2.40;2.20;;;;;;;28.77;62.56;100039.88;4983589;28;20645;-76
2022/06/03 11:25:36;;;;;;;2.43;2.10;;;;;;;28.77;62.86;100042.53;4983942;28;20451;-76
2022/06/03 11:28:04;;;;;;;3.13;2.50;;;;;;;28.78;62.83;100047.75;4981988;28;20193;-74
2022/06/03 11:30:51;;;;;;;2.90;2.40;;;;;;;28.95;61.94;100046.22;4984666;28;20460;-75
2022/06/03 11:33:19;;;;;;;3.23;2.47;;;;;;;29.07;62.02;100043.41;4986421;28;20184;-75
2022/06/03 11:35:47;;;;;;;2.77;2.57;;;;;;;29.14;61.99;100034.72;4986095;28;20192;-76
2022/06/03 11:38:19;;;;;;;3.33;2.40;;;;;;;29.18;61.80;100036.13;4982995;28;20214;-76
2022/06/03 11:40:52;;;;;;;2.67;2.47;;;;;;;29.45;61.99;100037.25;4985832;28;20262;-76
2022/06/03 11:43:27;;;;;;;6.00;3.10;;;;;;;29.59;61.57;100040.44;4987974;28;20188;-76
2022/06/03 11:46:02;;;;;;;3.30;2.37;;;;;;;29.82;60.93;100046.28;4982709;28;20239;-76
2022/06/03 11:48:30;;;;;;;2.53;2.33;;;;;;;29.93;60.49;100050.59;4982372;28;20308;-76
2022/06/03 11:50:57;;;;;;;2.70;2.50;;;;;;;29.86;60.99;100044.19;4988054;28;20605;-76
2022/06/03 11:53:26;;;;;;;3.30;2.40;;;;;;;29.95;60.76;100038.00;4984891;28;20201;-76
2022/06/03 11:56:00;;;;;;;2.80;2.60;;;;;;;29.62;60.68;100048.16;4988346;28;20239;-76
2022/06/03 11:58:50;;;;;;;3.40;2.70;;;;;;;29.71;60.71;100044.66;4987879;28;20347;-76
2022/06/03 12:01:33;;;;;;;2.40;2.20;;;;;;;29.84;60.73;100048.81;4985707;28;20223;-76
2022/06/03 12:04:31;;;;;;;3.63;2.40;;;;;;;30.12;60.87;100047.03;4983372;28;20275;-76
2022/06/03 12:06:59;;;;;;;2.55;2.35;;;;;;;30.22;60.47;100044.34;4988930;28;20236;-76
2022/06/03 12:09:51;;;;;;;2.23;2.13;;;;;;;30.25;60.12;100050.19;4984881;28;20232;-76
2022/06/03 12:15:32;;;;;;;2.93;2.70;;;;;;;30.13;60.76;100056.72;4995933;28;20200;-76
2022/06/03 12:18:06;;;;;;;3.37;3.07;;;;;;;29.92;60.67;100051.59;4985993;28;20200;-76
2022/06/03 12:20:31;;;;;;;3.83;2.70;;;;;;;29.64;61.29;100049.72;4986254;28;20350;-76
2022/06/03 12:23:12;;;;;;;3.67;2.83;;;;;;;29.63;61.40;100055.16;4989335;28;20272;-76
2022/06/03 12:25:48;;;;;;;4.37;2.93;;;;;;;29.57;61.45;100061.91;4985736;28;20279;-76
2022/06/03 12:28:30;;;;;;;2.80;2.60;;;;;;;29.57;61.94;100061.09;4989185;28;20206;-76
2022/06/03 12:31:22;;;;;;;2.53;2.33;;;;;;;29.67;61.98;100064.56;4993653;28;20217;-76
2022/06/03 12:34:06;;;;;;;2.92;2.63;;;;;;;29.85;62.09;100077.16;4990497;28;20201;-76
2022/06/03 12:36:52;;;;;;;3.63;2.60;;;;;;;29.89;62.27;100079.41;4995738;28;20184;-76
2022/06/03 12:39:18;;;;;;;2.80;2.60;;;;;;;29.88;62.35;100095.53;4997706;28;20626;-77
2022/06/03 12:41:46;;;;;;;2.40;2.20;;;;;;;29.81;62.92;100093.44;4991662;28;20272;-76
2022/06/03 12:44:30;;;;;;;2.83;2.63;;;;;;;29.66;63.18;100092.22;4991568;28;20267;-76
2022/06/03 12:47:35;;;;;;;3.53;2.60;;;;;;;29.54;63.62;100091.53;4989622;28;20181;-77
2022/06/03 12:50:04;;;;;;;2.67;2.47;;;;;;;29.62;63.92;100097.00;4983782;28;20232;-76
2022/06/03 12:52:29;;;;;;;3.43;2.80;;;;;;;29.81;63.86;100100.59;4990184;28;20238;-76
2022/06/03 12:55:12;;;;;;;3.00;2.73;;;;;;;29.95;64.01;100097.50;4992175;28;20181;-75
2022/06/03 12:57:43;;;;;;;2.60;2.40;;;;;;;30.10;63.68;100113.09;4987145;28;20668;-76